This is the latest recevied weather packets stored in our database for station/object KD0RII. If no packets are shown the sender has not sent any weather packets the latest 10 day(s).
| Time | Temp. | Humidity | Pressure | Rain* | Wind** | Luminosity | Snow |
|---|---|---|---|---|---|---|---|
| 1777804042 | 8.89° C | 64% | 1017.1 hPa | 0 mm | - | 0 W/m² | - |
| 1777803739 | 8.33° C | 65% | 1016.9 hPa | 0 mm | - | 0 W/m² | - |
| 1777803435 | 8.33° C | 67% | 1017 hPa | 0 mm | - | 0 W/m² | - |
| 1777803133 | 7.78° C | 69% | 1016.9 hPa | 0 mm | - | 0 W/m² | - |
| 1777802830 | 6.67° C | 75% | 1017.1 hPa | 0 mm | - | 0 W/m² | - |
| 1777802528 | 5° C | 86% | 1017.3 hPa | 0 mm | - | 0 W/m² | - |
| 1777802225 | 4.44° C | 89% | 1017.3 hPa | 0 mm | - | 0 W/m² | - |
| 1777801924 | 3.89° C | 89% | 1017.2 hPa | 0 mm | - | 0 W/m² | - |
| 1777801620 | 3.89° C | 89% | 1017.5 hPa | 0 mm | - | 0 W/m² | - |
| 1777801317 | 3.33° C | 89% | 1017.6 hPa | 0 mm | - | 0 W/m² | - |
| 1777801013 | 3.33° C | 89% | 1017.6 hPa | 0 mm | - | 0 W/m² | - |
| 1777800711 | 3.89° C | 88% | 1017.7 hPa | 0 mm | - | 0 W/m² | - |
| 1777800410 | 3.89° C | 88% | 1017.5 hPa | 0 mm | - | 0 W/m² | - |
| 1777800108 | 3.89° C | 88% | 1017.7 hPa | 0 mm | - | 0 W/m² | - |
| 1777799803 | 3.89° C | 88% | 1017.6 hPa | 0 mm | - | 0 W/m² | - |
| 1777799501 | 3.89° C | 88% | 1017.5 hPa | 0 mm | - | 0 W/m² | - |
| 1777799196 | 3.89° C | 88% | 1017.8 hPa | 0 mm | - | 0 W/m² | - |
| 1777798892 | 3.89° C | 88% | 1017.7 hPa | 0 mm | - | 0 W/m² | - |
| 1777798588 | 3.89° C | 88% | 1017.7 hPa | 0 mm | - | 0 W/m² | - |
| 1777798286 | 3.89° C | 88% | 1017.9 hPa | 0 mm | - | 0 W/m² | - |
| 1777797982 | 3.33° C | 88% | 1017.8 hPa | 0 mm | - | 0 W/m² | - |
| 1777797680 | 3.33° C | 88% | 1017.7 hPa | 0 mm | - | 0 W/m² | - |
| 1777797377 | 3.33° C | 88% | 1017.9 hPa | 0 mm | - | 0 W/m² | - |
| 1777797074 | 3.89° C | 87% | 1017.8 hPa | 0 mm | - | 0 W/m² | - |
| 1777796770 | 3.89° C | 87% | 1017.8 hPa | 0 mm | - | 0 W/m² | - |
* Rain latest hour (hover to see other rain measurements)
** Current wind speed in m/s (hover to see current wind gust speed)